Time;durP1;ratioP1;P1;durP2;ratioP2;P2;SDS_P1;SDS_P2;PMS_P1;PMS_P2;Temp;Humidity;BMP_temperature;BMP_pressure;BME280_temperature;BME280_humidity;BME280_pressure;Samples;Min_cycle;Max_cycle;Signal;HPM_P1;HPM_P2
2022/03/14 00:00:43;;;;;;;2.78;1.90;;;;;;;;;;5071485;28;20222;-59
2022/03/14 00:03:08;;;;;;;2.40;1.55;;;;;;;;;;5071118;28;20213;-59
2022/03/14 00:05:34;;;;;;;4.28;1.58;;;;;;;;;;5054758;28;20219;-59
2022/03/14 00:08:01;;;;;;;2.35;1.50;;;;;;;;;;5051627;28;20298;-59
2022/03/14 00:10:26;;;;;;;1.70;1.38;;;;;;;;;;5051126;28;20211;-59
2022/03/14 00:12:55;;;;;;;1.75;1.27;;;;;;;;;;5051031;28;20218;-59
2022/03/14 00:15:21;;;;;;;1.70;1.20;;;;;;;;;;5050997;28;20682;-59
2022/03/14 00:17:47;;;;;;;1.98;1.45;;;;;;;;;;5033491;28;20227;-59
2022/03/14 00:20:13;;;;;;;2.50;1.30;;;;;;;;;;5049952;28;20709;-59
2022/03/14 00:22:40;;;;;;;1.85;1.17;;;;;;;;;;5051623;28;20237;-59
2022/03/14 00:25:05;;;;;;;1.30;1.15;;;;;;;;;;5050865;28;20218;-59
2022/03/14 00:27:30;;;;;;;1.70;1.20;;;;;;;;;;5050561;28;20640;-59
2022/03/14 00:29:56;;;;;;;2.65;1.30;;;;;;;;;;5050887;28;20214;-59
2022/03/14 00:32:21;;;;;;;2.42;1.30;;;;;;;;;;5050642;28;20234;-58
2022/03/14 00:34:46;;;;;;;1.60;1.35;;;;;;;;;;5049085;28;20230;-59
2022/03/14 00:37:12;;;;;;;1.67;1.30;;;;;;;;;;5058257;28;20674;-59
2022/03/14 00:39:37;;;;;;;1.45;1.17;;;;;;;;;;5046124;28;20226;-59
2022/03/14 00:42:03;;;;;;;1.77;1.40;;;;;;;;;;5064464;28;20210;-59
2022/03/14 00:44:28;;;;;;;1.63;1.30;;;;;;;;;;5052345;28;20553;-59
2022/03/14 00:46:55;;;;;;;1.40;1.10;;;;;;;;;;5038183;28;20229;-59
2022/03/14 00:49:21;;;;;;;1.20;1.00;;;;;;;;;;5061072;28;20225;-59
2022/03/14 00:51:46;;;;;;;2.58;1.50;;;;;;;;;;5061822;28;20234;-59
2022/03/14 00:54:12;;;;;;;2.22;1.48;;;;;;;;;;5044012;28;20789;-59
2022/03/14 00:56:37;;;;;;;1.95;1.33;;;;;;;;;;5045456;28;20627;-59
2022/03/14 00:59:02;;;;;;;2.28;1.65;;;;;;;;;;5044759;28;20371;-59
2022/03/14 01:01:28;;;;;;;2.10;1.50;;;;;;;;;;5044383;28;20765;-58
2022/03/14 01:03:53;;;;;;;2.58;1.50;;;;;;;;;;5045472;28;20240;-59
2022/03/14 01:06:19;;;;;;;2.72;1.50;;;;;;;;;;5044694;28;20226;-59
2022/03/14 01:08:44;;;;;;;2.08;1.30;;;;;;;;;;5024725;28;20264;-59
2022/03/14 01:11:09;;;;;;;1.77;1.38;;;;;;;;;;5056591;28;20210;-59
2022/03/14 01:13:35;;;;;;;2.63;1.55;;;;;;;;;;5056889;28;20219;-59
2022/03/14 01:16:00;;;;;;;2.10;1.63;;;;;;;;;;5058732;28;20642;-59
2022/03/14 01:18:25;;;;;;;1.95;1.40;;;;;;;;;;5063830;28;20229;-59
2022/03/14 01:20:50;;;;;;;2.10;1.48;;;;;;;;;;5064411;28;20210;-59
2022/03/14 01:23:16;;;;;;;2.10;1.58;;;;;;;;;;5063250;28;20537;-59
2022/03/14 01:25:43;;;;;;;2.33;1.50;;;;;;;;;;5064280;28;20222;-59
2022/03/14 01:28:08;;;;;;;1.65;1.45;;;;;;;;;;5063869;28;20735;-59
2022/03/14 01:30:33;;;;;;;2.33;1.55;;;;;;;;;;5063255;28;20214;-59
2022/03/14 01:33:00;;;;;;;2.50;1.55;;;;;;;;;;5057118;28;20690;-59
2022/03/14 01:35:25;;;;;;;2.10;1.50;;;;;;;;;;5055996;28;20218;-59
2022/03/14 01:37:52;;;;;;;2.20;1.67;;;;;;;;;;5042331;28;20815;-59
2022/03/14 01:40:17;;;;;;;2.67;1.52;;;;;;;;;;5062290;28;20293;-59
2022/03/14 01:42:43;;;;;;;2.80;1.58;;;;;;;;;;5064165;28;20756;-58
2022/03/14 01:45:08;;;;;;;1.88;1.40;;;;;;;;;;5043612;28;20222;-59
2022/03/14 01:47:34;;;;;;;2.00;1.45;;;;;;;;;;5044743;28;20213;-59
2022/03/14 01:49:59;;;;;;;3.17;1.58;;;;;;;;;;5044211;28;20254;-59
2022/03/14 01:52:25;;;;;;;4.82;1.98;;;;;;;;;;5044080;28;20233;-59
2022/03/14 01:54:50;;;;;;;2.17;1.80;;;;;;;;;;5040420;28;20214;-59
2022/03/14 01:57:16;;;;;;;2.67;1.70;;;;;;;;;;5017941;28;20219;-59
2022/03/14 01:59:41;;;;;;;2.40;1.70;;;;;;;;;;5019062;28;20258;-59
2022/03/14 02:02:06;;;;;;;3.00;1.90;;;;;;;;;;5040856;28;20290;-59
2022/03/14 02:04:32;;;;;;;2.33;1.60;;;;;;;;;;5044079;28;20537;-59
2022/03/14 02:06:58;;;;;;;4.03;1.75;;;;;;;;;;5044514;28;20640;-59
2022/03/14 02:09:23;;;;;;;5.05;1.85;;;;;;;;;;5045303;28;20218;-59
2022/03/14 02:11:55;;;;;;;2.67;1.88;;;;;;;;;;5063064;28;20576;-59
2022/03/14 02:14:20;;;;;;;3.58;2.08;;;;;;;;;;5063378;28;20301;-59
2022/03/14 02:16:45;;;;;;;3.55;2.10;;;;;;;;;;5061657;28;20459;-59
2022/03/14 02:19:11;;;;;;;2.90;2.15;;;;;;;;;;5055591;28;20704;-59
2022/03/14 02:21:38;;;;;;;3.08;2.30;;;;;;;;;;5039049;28;20218;-59
2022/03/14 02:24:03;;;;;;;3.42;2.40;;;;;;;;;;5042066;28;20215;-59
2022/03/14 02:26:28;;;;;;;4.35;2.50;;;;;;;;;;5047531;28;20587;-59
2022/03/14 02:28:54;;;;;;;3.60;2.53;;;;;;;;;;5048108;28;20219;-59
2022/03/14 02:31:19;;;;;;;3.53;2.40;;;;;;;;;;5047710;28;20621;-59
2022/03/14 02:33:45;;;;;;;3.10;2.30;;;;;;;;;;5047224;28;20226;-59
2022/03/14 02:36:10;;;;;;;4.00;2.65;;;;;;;;;;5047774;28;20715;-59
2022/03/14 02:38:35;;;;;;;4.75;3.10;;;;;;;;;;5048243;28;20223;-59
2022/03/14 02:41:00;;;;;;;3.92;2.70;;;;;;;;;;5040175;28;20721;-60
2022/03/14 02:43:26;;;;;;;3.95;2.65;;;;;;;;;;5028051;28;20215;-59
2022/03/14 02:45:51;;;;;;;3.75;2.70;;;;;;;;;;5045148;28;20702;-59
2022/03/14 02:48:17;;;;;;;3.70;2.55;;;;;;;;;;5045282;28;20215;-59
2022/03/14 02:50:43;;;;;;;3.92;2.63;;;;;;;;;;5048034;28;20207;-59
2022/03/14 02:53:11;;;;;;;4.18;3.10;;;;;;;;;;5045274;28;20718;-59
2022/03/14 02:55:37;;;;;;;3.75;2.70;;;;;;;;;;5047932;28;20658;-59
2022/03/14 02:58:02;;;;;;;5.07;2.95;;;;;;;;;;5065287;28;20317;-59
2022/03/14 03:00:28;;;;;;;3.75;2.63;;;;;;;;;;5065214;28;20215;-59
2022/03/14 03:02:53;;;;;;;4.47;2.88;;;;;;;;;;5061737;28;20435;-59
2022/03/14 03:05:18;;;;;;;3.83;2.83;;;;;;;;;;5043727;28;20367;-59
2022/03/14 03:07:43;;;;;;;3.08;2.20;;;;;;;;;;5037886;28;20301;-59
2022/03/14 03:10:09;;;;;;;4.25;2.65;;;;;;;;;;5042181;28;20311;-59
2022/03/14 03:12:36;;;;;;;4.03;2.58;;;;;;;;;;5046191;28;20261;-59
2022/03/14 03:15:01;;;;;;;3.58;2.50;;;;;;;;;;5045386;28;20213;-59
2022/03/14 03:17:27;;;;;;;6.57;2.60;;;;;;;;;;5046168;28;20223;-59
2022/03/14 03:19:52;;;;;;;4.78;2.50;;;;;;;;;;5045988;28;20273;-59
2022/03/14 03:22:17;;;;;;;4.05;2.75;;;;;;;;;;5045003;28;20276;-59
2022/03/14 03:24:43;;;;;;;3.10;2.17;;;;;;;;;;5027109;28;20226;-59
2022/03/14 03:27:08;;;;;;;3.70;2.72;;;;;;;;;;5037939;28;20214;-59
2022/03/14 03:29:33;;;;;;;4.15;2.80;;;;;;;;;;5037861;28;20611;-59
2022/03/14 03:31:58;;;;;;;5.65;2.97;;;;;;;;;;5039443;28;20580;-59
2022/03/14 03:34:24;;;;;;;4.82;2.85;;;;;;;;;;5044878;28;20302;-58
2022/03/14 03:36:49;;;;;;;5.20;3.08;;;;;;;;;;5045823;28;20234;-59
2022/03/14 03:39:14;;;;;;;3.75;2.65;;;;;;;;;;5045268;28;20619;-59
2022/03/14 03:41:39;;;;;;;4.15;3.15;;;;;;;;;;5045685;28;20280;-59
2022/03/14 03:44:06;;;;;;;5.70;3.20;;;;;;;;;;5054872;28;20214;-59
2022/03/14 03:46:31;;;;;;;4.68;3.10;;;;;;;;;;5045784;28;20226;-59
2022/03/14 03:48:56;;;;;;;4.93;3.30;;;;;;;;;;5040844;28;20219;-59
2022/03/14 03:51:22;;;;;;;4.70;3.15;;;;;;;;;;4998010;28;1114267;-59
2022/03/14 03:53:47;;;;;;;4.10;3.08;;;;;;;;;;5039094;28;20785;-59
2022/03/14 03:56:12;;;;;;;4.60;3.17;;;;;;;;;;5043148;28;20215;-59
2022/03/14 03:58:37;;;;;;;4.70;3.10;;;;;;;;;;5045730;28;20585;-59
2022/03/14 04:01:03;;;;;;;4.80;3.30;;;;;;;;;;5046113;28;20215;-59
2022/03/14 04:03:28;;;;;;;5.25;3.40;;;;;;;;;;5045818;28;20523;-59
2022/03/14 04:05:53;;;;;;;4.45;3.22;;;;;;;;;;5046930;28;20311;-59
2022/03/14 04:08:19;;;;;;;5.20;3.42;;;;;;;;;;5045668;28;20210;-59
2022/03/14 04:10:53;;;;;;;5.20;3.22;;;;;;;;;;5043600;28;20208;-59
2022/03/14 04:13:19;;;;;;;6.32;3.63;;;;;;;;;;5038306;28;20251;-59
2022/03/14 04:15:51;;;;;;;5.75;3.60;;;;;;;;;;5038561;28;20215;-59
2022/03/14 04:18:18;;;;;;;5.45;3.72;;;;;;;;;;5059297;28;20268;-59
2022/03/14 04:20:43;;;;;;;5.78;3.90;;;;;;;;;;5065295;28;20674;-59
2022/03/14 04:23:09;;;;;;;5.28;3.78;;;;;;;;;;5064938;28;20222;-59
2022/03/14 04:25:34;;;;;;;4.82;3.50;;;;;;;;;;5064554;28;20619;-59
2022/03/14 04:27:59;;;;;;;5.07;2.95;;;;;;;;;;5065217;28;20328;-59
2022/03/14 04:30:25;;;;;;;5.38;3.67;;;;;;;;;;5064662;28;20260;-59
2022/03/14 04:32:50;;;;;;;4.38;3.30;;;;;;;;;;5064500;28;20241;-59
2022/03/14 04:35:16;;;;;;;5.15;3.20;;;;;;;;;;5057102;28;20301;-59
2022/03/14 04:37:41;;;;;;;5.80;3.67;;;;;;;;;;5043982;28;20234;-59
2022/03/14 04:40:08;;;;;;;5.93;3.45;;;;;;;;;;5037576;28;20211;-59
2022/03/14 04:42:33;;;;;;;4.82;3.33;;;;;;;;;;5044656;28;20498;-59
2022/03/14 04:44:58;;;;;;;4.22;2.80;;;;;;;;;;5055289;28;20272;-59
2022/03/14 04:47:25;;;;;;;4.00;2.75;;;;;;;;;;5044072;28;20249;-59
2022/03/14 04:49:51;;;;;;;4.75;2.83;;;;;;;;;;5045451;28;20222;-59
2022/03/14 04:52:16;;;;;;;5.32;2.78;;;;;;;;;;5044717;28;20227;-59
2022/03/14 04:54:43;;;;;;;4.35;3.10;;;;;;;;;;5044354;28;20602;-59
2022/03/14 04:57:09;;;;;;;5.45;3.20;;;;;;;;;;5041130;28;20211;-59
2022/03/14 04:59:34;;;;;;;4.95;3.13;;;;;;;;;;5037887;28;20580;-59
2022/03/14 05:01:59;;;;;;;4.25;3.10;;;;;;;;;;5037124;28;20608;-59
2022/03/14 05:04:25;;;;;;;4.38;2.70;;;;;;;;;;5041409;28;20245;-59
2022/03/14 05:06:50;;;;;;;5.03;3.47;;;;;;;;;;5044306;28;20269;-59
2022/03/14 05:09:15;;;;;;;4.53;2.97;;;;;;;;;;5044305;28;20306;-59
2022/03/14 05:11:40;;;;;;;4.90;2.90;;;;;;;;;;5045349;28;20573;-59
2022/03/14 05:14:08;;;;;;;4.75;3.13;;;;;;;;;;5043932;28;20211;-59
2022/03/14 05:16:33;;;;;;;5.10;3.28;;;;;;;;;;5045129;28;20286;-58
2022/03/14 05:18:58;;;;;;;5.22;3.40;;;;;;;;;;5043423;28;20235;-59
2022/03/14 05:21:24;;;;;;;5.13;3.30;;;;;;;;;;5036699;28;20239;-59
2022/03/14 05:23:49;;;;;;;5.53;3.55;;;;;;;;;;5019381;28;20717;-59
2022/03/14 05:26:14;;;;;;;5.15;3.90;;;;;;;;;;5038106;28;20252;-59
2022/03/14 05:28:39;;;;;;;6.35;4.57;;;;;;;;;;5044141;28;20207;-59
2022/03/14 05:31:05;;;;;;;5.68;4.47;;;;;;;;;;5044435;28;20219;-59
2022/03/14 05:33:30;;;;;;;6.93;5.38;;;;;;;;;;5044861;28;20215;-59
2022/03/14 05:35:55;;;;;;;7.25;5.32;;;;;;;;;;5044197;28;20215;-59
2022/03/14 05:38:22;;;;;;;6.95;5.97;;;;;;;;;;5043821;28;20588;-58
2022/03/14 05:40:48;;;;;;;6.97;5.63;;;;;;;;;;5064094;28;20637;-58
2022/03/14 05:43:13;;;;;;;6.50;5.72;;;;;;;;;;5052871;28;20747;-59
2022/03/14 05:45:39;;;;;;;6.82;5.95;;;;;;;;;;5037674;28;20222;-58
2022/03/14 05:48:05;;;;;;;7.75;5.70;;;;;;;;;;5036570;28;20207;-58
2022/03/14 05:50:30;;;;;;;8.27;6.47;;;;;;;;;;5042119;28;20226;-58
2022/03/14 05:52:55;;;;;;;6.88;6.07;;;;;;;;;;5044366;28;20227;-58
2022/03/14 05:55:20;;;;;;;9.05;6.50;;;;;;;;;;5044588;28;20273;-58
2022/03/14 05:57:46;;;;;;;9.43;6.80;;;;;;;;;;5047957;28;20554;-58
2022/03/14 06:00:12;;;;;;;8.07;6.75;;;;;;;;;;5048249;28;20678;-58
2022/03/14 06:02:38;;;;;;;9.45;7.70;;;;;;;;;;5048677;28;20203;-58
2022/03/14 06:05:03;;;;;;;8.73;6.47;;;;;;;;;;5044341;28;20523;-58
2022/03/14 06:07:28;;;;;;;9.65;6.90;;;;;;;;;;5040595;28;20713;-58
2022/03/14 06:09:54;;;;;;;9.25;7.05;;;;;;;;;;5041004;28;20211;-58
2022/03/14 06:12:24;;;;;;;11.80;7.55;;;;;;;;;;5042932;28;20222;-58
2022/03/14 06:14:51;;;;;;;11.30;7.38;;;;;;;;;;5067222;28;20686;-58
2022/03/14 06:17:16;;;;;;;9.95;7.97;;;;;;;;;;5066645;28;20682;-58
2022/03/14 06:19:41;;;;;;;11.75;8.40;;;;;;;;;;5067522;28;20230;-58
2022/03/14 06:22:06;;;;;;;10.93;8.63;;;;;;;;;;5067080;28;20251;-59
2022/03/14 06:24:32;;;;;;;14.57;8.73;;;;;;;;;;5066450;28;20211;-58
2022/03/14 06:26:58;;;;;;;9.45;8.10;;;;;;;;;;5047827;28;20215;-58
2022/03/14 06:29:23;;;;;;;13.57;9.98;;;;;;;;;;5039552;28;20771;-58
2022/03/14 06:31:49;;;;;;;11.30;8.43;;;;;;;;;;5040229;28;20269;-57
2022/03/14 06:34:15;;;;;;;13.05;8.82;;;;;;;;;;5041038;28;20597;-58
2022/03/14 06:36:40;;;;;;;11.57;8.50;;;;;;;;;;5047956;28;20218;-57
2022/03/14 06:39:06;;;;;;;11.18;8.63;;;;;;;;;;5046438;28;20231;-58
2022/03/14 06:41:35;;;;;;;12.73;8.55;;;;;;;;;;5048024;28;20746;-58
2022/03/14 06:44:00;;;;;;;11.55;8.68;;;;;;;;;;5057499;28;20214;-58
2022/03/14 06:46:26;;;;;;;10.45;8.30;;;;;;;;;;5046900;28;20211;-57
2022/03/14 06:48:51;;;;;;;11.93;7.95;;;;;;;;;;5047553;28;20689;-58
2022/03/14 06:51:16;;;;;;;12.38;9.00;;;;;;;;;;5039472;28;20270;-57
2022/03/14 06:53:42;;;;;;;11.13;8.40;;;;;;;;;;5039256;28;20221;-57
2022/03/14 06:56:07;;;;;;;12.63;9.40;;;;;;;;;;5059036;28;20237;-58
2022/03/14 06:58:34;;;;;;;10.80;8.32;;;;;;;;;;5064697;28;20708;-58
2022/03/14 07:00:59;;;;;;;10.15;9.02;;;;;;;;;;5066013;28;20766;-58
2022/03/14 07:03:27;;;;;;;9.77;8.32;;;;;;;;;;5066179;28;20211;-57
2022/03/14 07:05:52;;;;;;;11.43;8.63;;;;;;;;;;5048372;28;20630;-58
2022/03/14 07:08:17;;;;;;;12.68;9.48;;;;;;;;;;5045951;28;20218;-58
2022/03/14 07:10:43;;;;;;;14.40;9.52;;;;;;;;;;5047406;28;20273;-57
2022/03/14 07:13:08;;;;;;;12.45;8.90;;;;;;;;;;5044089;28;20543;-57
2022/03/14 07:15:33;;;;;;;17.65;7.18;;;;;;;;;;5039159;28;20856;-58
2022/03/14 07:17:59;;;;;;;12.88;9.70;;;;;;;;;;5058872;28;20222;-58
2022/03/14 07:20:25;;;;;;;11.80;9.07;;;;;;;;;;5060438;28;20221;-58
2022/03/14 07:22:54;;;;;;;13.18;9.10;;;;;;;;;;5066353;28;20218;-58
2022/03/14 07:25:21;;;;;;;10.35;8.73;;;;;;;;;;5065754;28;20260;-58
2022/03/14 07:27:46;;;;;;;11.90;9.32;;;;;;;;;;5065694;28;20221;-58
2022/03/14 07:30:14;;;;;;;14.85;10.88;;;;;;;;;;5045997;28;20861;-58
2022/03/14 07:32:39;;;;;;;12.48;10.10;;;;;;;;;;5066010;28;20222;-58
2022/03/14 07:35:05;;;;;;;12.27;10.43;;;;;;;;;;5064071;28;20211;-60
2022/03/14 07:37:30;;;;;;;12.98;9.52;;;;;;;;;;5046829;28;20215;-58
2022/03/14 07:39:55;;;;;;;13.88;10.25;;;;;;;;;;5039276;28;20238;-58
2022/03/14 07:42:20;;;;;;;14.77;11.07;;;;;;;;;;5042507;28;20257;-59
2022/03/14 07:44:46;;;;;;;12.60;10.32;;;;;;;;;;5050507;28;20277;-58
2022/03/14 07:47:13;;;;;;;14.82;11.10;;;;;;;;;;5065061;28;20214;-58
2022/03/14 07:49:39;;;;;;;15.63;11.77;;;;;;;;;;5064958;28;20207;-59
2022/03/14 07:52:04;;;;;;;15.23;11.77;;;;;;;;;;5065170;28;20573;-59
2022/03/14 07:54:29;;;;;;;15.32;11.75;;;;;;;;;;5065627;28;20676;-59
2022/03/14 07:56:55;;;;;;;17.52;12.40;;;;;;;;;;5065283;28;20206;-59
2022/03/14 07:59:20;;;;;;;16.73;12.63;;;;;;;;;;5059304;28;20670;-59
2022/03/14 08:01:45;;;;;;;15.05;11.73;;;;;;;;;;5047846;28;20231;-58
2022/03/14 08:04:11;;;;;;;16.85;13.10;;;;;;;;;;5064374;28;20204;-58
2022/03/14 08:06:41;;;;;;;18.90;13.57;;;;;;;;;;5051825;28;20218;-58
2022/03/14 08:09:07;;;;;;;18.60;13.52;;;;;;;;;;5051141;28;20658;-58
2022/03/14 08:11:32;;;;;;;17.73;12.85;;;;;;;;;;5050764;28;20264;-59
2022/03/14 08:13:58;;;;;;;20.55;12.60;;;;;;;;;;5051592;28;20207;-59
2022/03/14 08:16:23;;;;;;;17.50;12.93;;;;;;;;;;5050973;28;20571;-58
2022/03/14 08:18:49;;;;;;;17.33;13.52;;;;;;;;;;5049762;28;20337;-59
2022/03/14 08:21:14;;;;;;;17.75;14.27;;;;;;;;;;5050937;28;20207;-58
2022/03/14 08:23:40;;;;;;;20.55;14.90;;;;;;;;;;5051181;28;20215;-58
2022/03/14 08:26:07;;;;;;;19.50;14.07;;;;;;;;;;5054060;28;20203;-58
2022/03/14 08:28:34;;;;;;;21.75;14.20;;;;;;;;;;5070289;28;20210;-61
2022/03/14 08:31:00;;;;;;;19.15;14.48;;;;;;;;;;5070347;28;20285;-60
2022/03/14 08:33:27;;;;;;;19.77;14.52;;;;;;;;;;5070464;28;21042;-61
2022/03/14 08:35:54;;;;;;;20.10;15.00;;;;;;;;;;5070932;28;20295;-60
2022/03/14 08:38:19;;;;;;;19.85;15.27;;;;;;;;;;5068706;28;20253;-61
2022/03/14 08:40:45;;;;;;;22.15;15.30;;;;;;;;;;5070467;28;20222;-60
2022/03/14 08:43:10;;;;;;;22.17;15.55;;;;;;;;;;5066193;28;20219;-60
2022/03/14 08:45:35;;;;;;;20.23;15.23;;;;;;;;;;5050240;28;20269;-61
2022/03/14 08:48:01;;;;;;;17.15;14.38;;;;;;;;;;5050632;28;20246;-60
2022/03/14 08:50:26;;;;;;;22.73;14.98;;;;;;;;;;5050890;28;20199;-60
2022/03/14 08:52:52;;;;;;;22.17;15.13;;;;;;;;;;5064689;28;20596;-60
2022/03/14 08:55:18;;;;;;;23.02;15.60;;;;;;;;;;5069792;28;20246;-60
2022/03/14 08:57:43;;;;;;;23.63;15.77;;;;;;;;;;5070505;28;20249;-60
2022/03/14 09:00:08;;;;;;;22.08;15.50;;;;;;;;;;5069224;28;20222;-60
2022/03/14 09:02:34;;;;;;;22.10;15.88;;;;;;;;;;5053009;28;20211;-60
2022/03/14 09:04:59;;;;;;;19.50;15.27;;;;;;;;;;5057255;28;20209;-60
2022/03/14 09:07:25;;;;;;;20.20;15.00;;;;;;;;;;5069387;28;20210;-60
2022/03/14 09:09:50;;;;;;;21.70;15.85;;;;;;;;;;5064832;28;20621;-60
2022/03/14 09:12:15;;;;;;;23.25;15.13;;;;;;;;;;5069546;28;20213;-60
2022/03/14 09:14:40;;;;;;;21.60;16.60;;;;;;;;;;5051262;28;20269;-60
2022/03/14 09:17:06;;;;;;;22.05;16.10;;;;;;;;;;5049873;28;20242;-60
2022/03/14 09:19:34;;;;;;;20.02;15.07;;;;;;;;;;5050342;28;20227;-60
2022/03/14 09:21:59;;;;;;;20.50;15.70;;;;;;;;;;5049565;28;20215;-60
2022/03/14 09:24:26;;;;;;;23.35;16.40;;;;;;;;;;5049862;28;20754;-60
2022/03/14 09:26:52;;;;;;;23.40;16.63;;;;;;;;;;5049888;28;20219;-60
2022/03/14 09:29:18;;;;;;;21.52;16.13;;;;;;;;;;5048948;28;20253;-60
2022/03/14 09:31:43;;;;;;;20.52;15.73;;;;;;;;;;5050158;28;20238;-60
2022/03/14 09:34:08;;;;;;;23.40;17.08;;;;;;;;;;5048968;28;20678;-60
2022/03/14 09:36:33;;;;;;;20.92;15.80;;;;;;;;;;5050241;28;20215;-60
2022/03/14 09:38:59;;;;;;;21.17;16.30;;;;;;;;;;5032298;28;20303;-60
2022/03/14 09:41:24;;;;;;;22.58;16.13;;;;;;;;;;5048682;28;20219;-60
2022/03/14 09:43:51;;;;;;;22.70;16.30;;;;;;;;;;5049951;28;20284;-60
2022/03/14 09:46:16;;;;;;;24.42;17.05;;;;;;;;;;5031976;28;20265;-60
2022/03/14 09:48:44;;;;;;;24.33;17.35;;;;;;;;;;5031622;28;20629;-60
2022/03/14 09:51:09;;;;;;;23.88;17.15;;;;;;;;;;5049444;28;20425;-60
2022/03/14 09:53:35;;;;;;;27.17;18.40;;;;;;;;;;5049779;28;20750;-60
2022/03/14 09:56:00;;;;;;;26.40;18.10;;;;;;;;;;5048854;28;20211;-60
2022/03/14 09:58:26;;;;;;;25.58;18.27;;;;;;;;;;5049292;28;20332;-60
2022/03/14 10:00:51;;;;;;;27.92;18.52;;;;;;;;;;5049892;28;20203;-60
2022/03/14 10:03:17;;;;;;;33.00;20.10;;;;;;;;;;5048642;28;20297;-60
2022/03/14 10:05:42;;;;;;;24.92;18.85;;;;;;;;;;5067500;28;20210;-60
2022/03/14 10:08:08;;;;;;;24.98;18.65;;;;;;;;;;5069382;28;20289;-60
2022/03/14 10:10:37;;;;;;;26.35;19.75;;;;;;;;;;5068957;28;20666;-60
2022/03/14 10:13:03;;;;;;;28.70;19.38;;;;;;;;;;5054743;28;20207;-60
2022/03/14 10:15:31;;;;;;;28.45;20.15;;;;;;;;;;5032070;28;20621;-60
2022/03/14 10:17:57;;;;;;;25.98;20.38;;;;;;;;;;5048939;28;20641;-60
2022/03/14 10:20:22;;;;;;;28.83;20.10;;;;;;;;;;5049274;28;20203;-60
2022/03/14 10:22:48;;;;;;;25.08;19.60;;;;;;;;;;5049682;28;20226;-60
2022/03/14 10:25:14;;;;;;;24.75;19.83;;;;;;;;;;5048442;28;20211;-60
2022/03/14 10:27:40;;;;;;;24.25;19.38;;;;;;;;;;5049770;28;20215;-60
2022/03/14 10:30:06;;;;;;;25.73;19.02;;;;;;;;;;5049050;28;20340;-60
2022/03/14 10:32:32;;;;;;;26.77;19.40;;;;;;;;;;5048997;28;20681;-60
2022/03/14 10:34:58;;;;;;;25.92;19.13;;;;;;;;;;5049808;28;20211;-60
2022/03/14 10:37:27;;;;;;;28.00;19.48;;;;;;;;;;5048514;28;20277;-60
2022/03/14 10:39:58;;;;;;;26.27;19.98;;;;;;;;;;5049203;28;20235;-60
2022/03/14 10:42:23;;;;;;;26.88;18.77;;;;;;;;;;5084466;28;20213;-60
2022/03/14 10:44:48;;;;;;;28.38;18.80;;;;;;;;;;5084852;28;20213;-60
2022/03/14 10:47:14;;;;;;;21.17;17.75;;;;;;;;;;5071969;28;20218;-59
2022/03/14 10:49:40;;;;;;;26.40;20.53;;;;;;;;;;5072694;28;20480;-58
2022/03/14 10:52:06;;;;;;;23.70;18.38;;;;;;;;;;5071657;28;20259;-58
2022/03/14 10:54:34;;;;;;;26.00;19.88;;;;;;;;;;5072998;28;20244;-58
2022/03/14 10:57:01;;;;;;;25.70;18.85;;;;;;;;;;5072975;28;20754;-57
2022/03/14 10:59:33;;;;;;;25.92;18.10;;;;;;;;;;5059157;28;20654;-58
2022/03/14 11:01:59;;;;;;;26.52;17.58;;;;;;;;;;5035160;28;20223;-58
2022/03/14 11:04:26;;;;;;;23.42;16.90;;;;;;;;;;5059104;28;20214;-58
2022/03/14 11:06:59;;;;;;;26.10;18.10;;;;;;;;;;5072103;28;20208;-58
2022/03/14 11:09:35;;;;;;;22.90;19.55;;;;;;;;;;5070972;28;20415;-58
2022/03/14 11:12:05;;;;;;;23.98;17.90;;;;;;;;;;5066317;28;20195;-59
2022/03/14 11:14:30;;;;;;;23.13;17.77;;;;;;;;;;5051747;28;20294;-59
2022/03/14 11:17:07;;;;;;;25.15;17.65;;;;;;;;;;5067522;28;20745;-59
2022/03/14 11:19:33;;;;;;;22.83;17.50;;;;;;;;;;5071574;28;20697;-59
2022/03/14 11:21:58;;;;;;;24.00;18.65;;;;;;;;;;5034668;28;20268;-58
2022/03/14 11:24:23;;;;;;;26.83;19.33;;;;;;;;;;5035487;28;20207;-59
2022/03/14 11:26:49;;;;;;;23.90;17.40;;;;;;;;;;5077688;28;20208;-59
2022/03/14 11:29:15;;;;;;;27.65;17.50;;;;;;;;;;5072545;28;20263;-59
2022/03/14 11:31:45;;;;;;;22.63;16.85;;;;;;;;;;5074658;28;20198;-58
2022/03/14 11:34:11;;;;;;;22.90;16.45;;;;;;;;;;5091251;28;20221;-59
2022/03/14 11:36:37;;;;;;;22.80;17.00;;;;;;;;;;5074720;28;20218;-58
2022/03/14 11:39:02;;;;;;;20.27;15.63;;;;;;;;;;5091506;28;20218;-59
2022/03/14 11:41:27;;;;;;;22.40;16.17;;;;;;;;;;5091751;28;20217;-58
2022/03/14 11:43:53;;;;;;;20.98;14.32;;;;;;;;;;5074293;28;20217;-58
2022/03/14 11:46:18;;;;;;;22.13;13.55;;;;;;;;;;5071910;28;20225;-59
2022/03/14 11:48:43;;;;;;;21.30;14.18;;;;;;;;;;5053428;28;20211;-59
2022/03/14 11:51:09;;;;;;;23.88;15.93;;;;;;;;;;5071528;28;20206;-60
2022/03/14 11:53:35;;;;;;;18.35;13.95;;;;;;;;;;5061482;28;20231;-58
2022/03/14 11:56:01;;;;;;;21.08;14.30;;;;;;;;;;5050521;28;20229;-59
2022/03/14 11:58:29;;;;;;;20.60;12.90;;;;;;;;;;5051879;28;20219;-59
2022/03/14 12:00:55;;;;;;;27.00;15.30;;;;;;;;;;5051618;28;20223;-59
2022/03/14 12:03:46;;;;;;;23.02;14.57;;;;;;;;;;5050553;28;20294;-59
2022/03/14 12:06:11;;;;;;;26.60;15.93;;;;;;;;;;5050984;28;20226;-59
2022/03/14 12:08:36;;;;;;;19.58;11.63;;;;;;;;;;5033687;28;20207;-58
2022/03/14 12:11:20;;;;;;;28.33;18.20;;;;;;;;;;5050086;28;20213;-59
2022/03/14 12:13:46;;;;;;;18.50;12.05;;;;;;;;;;5062298;28;20305;-58
2022/03/14 12:16:30;;;;;;;20.75;13.05;;;;;;;;;;5070013;28;20290;-59
2022/03/14 12:18:57;;;;;;;19.30;13.63;;;;;;;;;;5071230;28;20226;-58
2022/03/14 12:21:52;;;;;;;15.60;11.52;;;;;;;;;;5053141;28;20214;-59
2022/03/14 12:24:19;;;;;;;17.08;9.88;;;;;;;;;;5069682;28;20225;-59
2022/03/14 12:26:45;;;;;;;19.20;10.25;;;;;;;;;;5053466;28;20301;-58
2022/03/14 12:29:29;;;;;;;15.45;9.02;;;;;;;;;;5070222;28;20305;-59
2022/03/14 12:32:13;;;;;;;15.30;9.07;;;;;;;;;;5070237;28;20218;-59
2022/03/14 12:34:38;;;;;;;17.55;10.35;;;;;;;;;;5070732;28;20214;-59
2022/03/14 12:37:05;;;;;;;16.33;10.18;;;;;;;;;;5069749;28;20211;-59
2022/03/14 12:39:34;;;;;;;15.02;9.75;;;;;;;;;;5052684;28;20222;-58
2022/03/14 12:42:18;;;;;;;15.85;9.93;;;;;;;;;;5070969;28;20206;-58
2022/03/14 12:44:44;;;;;;;14.07;8.70;;;;;;;;;;5063158;28;20211;-59
2022/03/14 12:47:09;;;;;;;17.25;9.20;;;;;;;;;;5032066;28;20218;-58
2022/03/14 12:49:38;;;;;;;15.30;9.43;;;;;;;;;;5050796;28;20219;-58
2022/03/14 12:52:08;;;;;;;15.68;9.00;;;;;;;;;;5049546;28;20227;-58
2022/03/14 12:54:33;;;;;;;17.15;9.65;;;;;;;;;;5049482;28;20211;-58
2022/03/14 12:56:59;;;;;;;15.77;10.18;;;;;;;;;;5050890;28;20618;-58
2022/03/14 12:59:27;;;;;;;18.75;10.35;;;;;;;;;;5049377;28;20719;-58
2022/03/14 13:01:52;;;;;;;16.98;9.43;;;;;;;;;;5050381;28;20211;-58
2022/03/14 13:04:17;;;;;;;17.08;9.18;;;;;;;;;;5055380;28;20214;-59
2022/03/14 13:06:48;;;;;;;15.23;8.30;;;;;;;;;;5069869;28;20214;-58
2022/03/14 13:09:14;;;;;;;17.52;8.40;;;;;;;;;;5053196;28;20215;-59
2022/03/14 13:11:39;;;;;;;17.83;7.93;;;;;;;;;;5062978;28;20206;-59
2022/03/14 13:14:07;;;;;;;17.70;8.02;;;;;;;;;;5047901;28;20217;-59
2022/03/14 13:16:34;;;;;;;13.00;7.38;;;;;;;;;;5031826;28;20549;-59
2022/03/14 13:18:59;;;;;;;13.98;7.00;;;;;;;;;;5049611;28;20227;-58
2022/03/14 13:21:26;;;;;;;14.88;7.35;;;;;;;;;;5047806;28;20782;-59
2022/03/14 13:23:52;;;;;;;15.43;6.72;;;;;;;;;;5049493;28;20286;-58
2022/03/14 13:26:20;;;;;;;13.10;7.53;;;;;;;;;;5048684;28;20260;-58
2022/03/14 13:28:45;;;;;;;17.15;7.53;;;;;;;;;;5050260;28;20207;-58
2022/03/14 13:31:10;;;;;;;15.55;7.55;;;;;;;;;;5049626;28;20221;-59
2022/03/14 13:33:36;;;;;;;13.27;7.50;;;;;;;;;;5049139;28;20268;-58
2022/03/14 13:36:02;;;;;;;14.57;7.85;;;;;;;;;;5049802;28;20497;-59
2022/03/14 13:38:28;;;;;;;16.13;7.10;;;;;;;;;;5049606;28;20708;-58
2022/03/14 13:40:55;;;;;;;12.77;7.30;;;;;;;;;;5049283;28;20294;-58
2022/03/14 13:43:20;;;;;;;13.30;6.72;;;;;;;;;;5049646;28;20679;-58
2022/03/14 13:45:45;;;;;;;13.45;6.18;;;;;;;;;;5047027;28;20233;-58
2022/03/14 13:48:10;;;;;;;11.00;6.60;;;;;;;;;;5068795;28;20245;-59
2022/03/14 13:50:45;;;;;;;13.57;6.75;;;;;;;;;;5070188;28;20684;-58
2022/03/14 13:53:20;;;;;;;13.85;6.07;;;;;;;;;;5069098;28;20222;-59
2022/03/14 13:55:53;;;;;;;10.77;5.95;;;;;;;;;;5051255;28;20209;-59
2022/03/14 13:58:23;;;;;;;11.82;5.97;;;;;;;;;;5069414;28;20245;-59
2022/03/14 14:00:50;;;;;;;13.43;5.80;;;;;;;;;;5069989;28;20284;-58
2022/03/14 14:03:20;;;;;;;9.80;5.80;;;;;;;;;;5066376;28;20213;-59
2022/03/14 14:05:45;;;;;;;13.60;5.90;;;;;;;;;;5051943;28;20211;-58
2022/03/14 14:08:10;;;;;;;14.27;6.55;;;;;;;;;;5081529;28;20632;-58
2022/03/14 14:10:36;;;;;;;15.00;5.80;;;;;;;;;;5071253;28;20206;-59
2022/03/14 14:13:02;;;;;;;12.73;5.80;;;;;;;;;;5070206;28;20239;-59
2022/03/14 14:15:40;;;;;;;12.80;5.13;;;;;;;;;;5049101;28;20218;-58
2022/03/14 14:18:13;;;;;;;13.95;5.45;;;;;;;;;;5051841;28;20214;-59
2022/03/14 14:20:39;;;;;;;10.02;5.55;;;;;;;;;;5055473;28;20307;-58
2022/03/14 14:23:05;;;;;;;12.55;5.97;;;;;;;;;;5071991;28;20758;-59
2022/03/14 14:25:31;;;;;;;11.23;5.38;;;;;;;;;;5073540;28;20248;-60